Lebo, Kansas
Current Conditions -  °F | °C
As of 1:53 AM on Thursday 23 Oct 2014 (Local Time) from KEMP Reporting Station
Overcast Overcast  
Wind Chill: 62°   Ceiling: 3900
Heat Index: 62°   Visibility: 7mi
Dew Point: 61°   Wind: 9mph
Humidity: 96%   Direction: 190°S
Pressure: 30.09"   Gusts: NA
Location:  38.42°N, 95.85°W
Report Text: KEMP 230653Z AUTO 19008KT 7SM BKN039 BKN049 OVC060 17/16 A3009 RMK AO2 RAE52 SLP184 P0003 T01670161
Loading
Personal Weather Stations






























Interactive Weather Map New forecast layout! Learn more

10-Day Weather Forecast

Advertisements
Track Severe Weather on mobile